Time;durP1;ratioP1;P1;durP2;ratioP2;P2;SDS_P1;SDS_P2;PMS_P1;PMS_P2;Temp;Humidity;BMP_temperature;BMP_pressure;BME280_temperature;BME280_humidity;BME280_pressure;Samples;Min_cycle;Max_cycle;Signal;HPM_P1;HPM_P2
2023/12/03 00:02:12;;;;;;;41.42;23.23;;;-1.10;99.90;;;;;;4935067;28;20528;-65
2023/12/03 00:04:39;;;;;;;44.80;23.50;;;-0.60;99.90;;;;;;4950630;28;20057;-65
2023/12/03 00:07:05;;;;;;;47.75;24.98;;;-0.90;99.90;;;;;;4934475;28;20047;-65
2023/12/03 00:09:31;;;;;;;40.15;24.25;;;-1.10;99.90;;;;;;4950542;28;20436;-65
2023/12/03 00:11:56;;;;;;;48.35;25.38;;;-1.10;99.90;;;;;;4934260;28;20086;-64
2023/12/03 00:14:22;;;;;;;45.05;24.20;;;-1.10;99.90;;;;;;4950085;28;20105;-64
2023/12/03 00:16:48;;;;;;;43.67;24.08;;;-1.30;99.90;;;;;;4952587;28;20035;-64
2023/12/03 00:19:13;;;;;;;42.47;23.77;;;-1.20;99.90;;;;;;4935266;28;20137;-64
2023/12/03 00:21:39;;;;;;;42.97;23.60;;;-1.40;99.90;;;;;;4950283;28;20035;-65
2023/12/03 00:24:05;;;;;;;42.03;23.45;;;-1.40;99.90;;;;;;4933386;28;20459;-64
2023/12/03 00:26:31;;;;;;;40.70;22.25;;;-1.00;99.90;;;;;;4934146;28;20251;-64
2023/12/03 00:28:56;;;;;;;44.58;24.73;;;-1.30;99.90;;;;;;4950030;28;20049;-64
2023/12/03 00:31:22;;;;;;;45.63;24.13;;;-1.30;99.90;;;;;;4934652;28;20311;-64
2023/12/03 00:33:48;;;;;;;38.58;23.08;;;-1.50;99.90;;;;;;4934319;28;20417;-65
2023/12/03 00:36:13;;;;;;;44.38;22.60;;;-1.40;99.90;;;;;;4949950;28;20043;-65
2023/12/03 00:38:39;;;;;;;42.80;23.27;;;-1.50;99.90;;;;;;4981848;28;20486;-65
2023/12/03 00:41:05;;;;;;;40.70;22.88;;;-1.60;99.90;;;;;;4950090;28;20068;-65
2023/12/03 00:43:31;;;;;;;39.55;23.40;;;-1.00;99.90;;;;;;4934576;28;20775;-66
2023/12/03 00:45:57;;;;;;;43.00;24.83;;;-1.60;99.90;;;;;;4949764;28;20070;-65
2023/12/03 00:48:23;;;;;;;39.55;23.15;;;-1.00;99.90;;;;;;4918163;28;20219;-65
2023/12/03 00:50:49;;;;;;;42.22;24.73;;;-1.60;99.90;;;;;;4949919;28;20042;-65
2023/12/03 00:53:15;;;;;;;40.00;24.20;;;-1.20;99.90;;;;;;4950307;28;20039;-65
2023/12/03 00:55:40;;;;;;;42.67;24.25;;;-1.20;99.90;;;;;;4933757;28;20047;-65
2023/12/03 00:58:06;;;;;;;43.10;23.15;;;-1.30;99.90;;;;;;4950188;28;20054;-64
2023/12/03 01:00:32;;;;;;;41.92;24.85;;;-1.20;99.90;;;;;;4951084;28;20060;-64
2023/12/03 01:02:57;;;;;;;43.63;24.88;;;-1.50;99.90;;;;;;4965387;28;20529;-65
2023/12/03 01:05:23;;;;;;;42.05;24.38;;;-1.50;99.90;;;;;;4934328;28;20109;-65
2023/12/03 01:07:49;;;;;;;45.83;26.00;;;-1.70;99.90;;;;;;4933290;28;20046;-64
2023/12/03 01:10:14;;;;;;;45.97;25.52;;;-1.90;99.90;;;;;;4933138;28;20140;-64
2023/12/03 01:12:40;;;;;;;59.92;29.25;;;-1.60;99.90;;;;;;4950042;28;20390;-64
2023/12/03 01:15:06;;;;;;;52.55;26.35;;;-1.40;99.90;;;;;;4936764;28;20421;-64
2023/12/03 01:17:32;;;;;;;42.75;25.10;;;-1.80;99.90;;;;;;4934239;28;20368;-65
2023/12/03 01:19:58;;;;;;;51.50;27.42;;;-2.00;99.90;;;;;;4905841;28;20422;-64
2023/12/03 01:22:24;;;;;;;56.00;27.30;;;-1.90;99.90;;;;;;4933793;28;20121;-65
2023/12/03 01:24:49;;;;;;;60.58;29.27;;;-1.90;99.90;;;;;;4933774;28;20110;-64
2023/12/03 01:27:15;;;;;;;55.90;28.65;;;-2.10;99.90;;;;;;4933623;28;20307;-64
2023/12/03 01:29:42;;;;;;;63.45;28.58;;;-1.50;99.90;;;;;;4920671;28;20041;-65
2023/12/03 01:32:08;;;;;;;57.97;28.65;;;-1.50;99.90;;;;;;4949567;28;20069;-64
2023/12/03 01:34:34;;;;;;;53.08;27.10;;;-1.70;99.90;;;;;;4949797;28;20755;-64
2023/12/03 01:37:00;;;;;;;63.47;30.85;;;-1.60;99.90;;;;;;4949584;28;20161;-64
2023/12/03 01:39:25;;;;;;;68.65;31.48;;;-2.20;99.90;;;;;;4949602;28;20130;-65
2023/12/03 01:41:52;;;;;;;56.78;29.67;;;-2.10;99.90;;;;;;4934072;28;20440;-64
2023/12/03 01:44:18;;;;;;;56.35;29.73;;;-2.20;99.90;;;;;;4953882;28;20383;-64
2023/12/03 01:46:48;;;;;;;69.05;33.47;;;-1.60;99.90;;;;;;4953477;28;20031;-64
2023/12/03 01:49:15;;;;;;;52.60;28.80;;;-1.60;99.90;;;;;;4921390;28;20129;-64
2023/12/03 01:51:41;;;;;;;45.65;26.52;;;-2.00;99.90;;;;;;4953087;28;20043;-65
2023/12/03 01:54:07;;;;;;;67.90;31.83;;;-2.10;99.90;;;;;;4937109;28;20134;-64
2023/12/03 01:56:33;;;;;;;51.08;28.33;;;-1.70;99.90;;;;;;4952919;28;20578;-64
2023/12/03 01:58:59;;;;;;;72.55;34.95;;;-1.70;99.90;;;;;;4953269;28;20042;-64
2023/12/03 02:01:25;;;;;;;62.47;33.63;;;-2.30;99.90;;;;;;4953298;28;20078;-65
2023/12/03 02:03:51;;;;;;;59.10;30.08;;;-2.20;99.90;;;;;;4953515;28;20177;-64
2023/12/03 02:06:16;;;;;;;61.00;31.15;;;-1.90;99.90;;;;;;4952883;28;20045;-65
2023/12/03 02:08:42;;;;;;;59.25;30.48;;;-2.40;99.90;;;;;;4920408;28;20066;-64
2023/12/03 02:11:08;;;;;;;60.42;30.85;;;-1.80;99.90;;;;;;4936355;28;21042;-64
2023/12/03 02:13:38;;;;;;;62.97;32.70;;;-2.10;99.90;;;;;;4937869;28;20077;-65
2023/12/03 02:16:05;;;;;;;63.92;31.30;;;-2.30;99.90;;;;;;4952715;28;20093;-64
2023/12/03 02:18:32;;;;;;;64.13;30.30;;;-2.00;99.90;;;;;;4954888;28;20413;-65
2023/12/03 02:20:58;;;;;;;69.88;33.97;;;-2.20;99.90;;;;;;4952810;28;20184;-65
2023/12/03 02:23:30;;;;;;;67.45;31.70;;;-1.50;99.90;;;;;;4936420;28;20046;-65
2023/12/03 02:25:56;;;;;;;62.00;33.20;;;-1.50;99.90;;;;;;4937864;28;20061;-65
2023/12/03 02:28:22;;;;;;;64.43;32.90;;;-2.00;99.90;;;;;;4936627;28;20179;-65
2023/12/03 02:30:48;;;;;;;65.38;33.28;;;-2.00;99.90;;;;;;4952452;28;20113;-66
2023/12/03 02:33:14;;;;;;;58.65;31.90;;;-2.00;99.90;;;;;;4936795;28;20050;-65
2023/12/03 02:35:39;;;;;;;60.25;32.58;;;-1.60;99.90;;;;;;4936625;28;20608;-65
2023/12/03 02:38:05;;;;;;;66.50;34.80;;;-2.10;99.90;;;;;;4952390;28;20038;-66
2023/12/03 02:40:34;;;;;;;64.45;33.35;;;-2.00;99.90;;;;;;4952587;28;20142;-65
2023/12/03 02:43:00;;;;;;;71.38;35.78;;;-2.00;99.90;;;;;;4936524;28;20350;-65
2023/12/03 02:45:25;;;;;;;66.03;34.47;;;-1.90;99.90;;;;;;4953004;28;20129;-65
2023/12/03 02:47:51;;;;;;;67.70;32.78;;;-2.20;99.90;;;;;;4936006;28;20438;-65
2023/12/03 02:50:17;;;;;;;63.97;32.30;;;-1.80;99.90;;;;;;4936033;28;20050;-65
2023/12/03 02:52:42;;;;;;;55.42;30.75;;;-1.90;99.90;;;;;;4923641;28;20046;-65
2023/12/03 02:55:08;;;;;;;48.22;29.92;;;-1.90;99.90;;;;;;4950951;28;20573;-65
2023/12/03 02:57:37;;;;;;;65.05;33.58;;;-2.00;99.90;;;;;;4952108;28;20387;-64
2023/12/03 03:00:06;;;;;;;57.47;30.65;;;-2.10;99.90;;;;;;4936487;28;20073;-65
2023/12/03 03:02:33;;;;;;;59.75;29.90;;;-2.50;99.90;;;;;;4951790;28;20042;-65
2023/12/03 03:04:59;;;;;;;61.58;32.30;;;-1.90;99.90;;;;;;4935744;28;20042;-65
2023/12/03 03:07:24;;;;;;;59.10;31.95;;;-2.20;99.90;;;;;;4935763;28;20549;-65
2023/12/03 03:09:50;;;;;;;60.30;33.15;;;-2.00;99.90;;;;;;4939189;28;20050;-64
2023/12/03 03:12:16;;;;;;;62.45;32.72;;;-2.50;99.90;;;;;;4935808;28;20062;-64
2023/12/03 03:14:41;;;;;;;61.72;31.80;;;-2.20;99.90;;;;;;4936209;28;20046;-64
2023/12/03 03:17:07;;;;;;;59.80;31.48;;;-2.20;99.90;;;;;;4935522;28;20046;-65
2023/12/03 03:19:33;;;;;;;52.65;31.05;;;-2.60;99.90;;;;;;4951410;28;20050;-64
2023/12/03 03:21:58;;;;;;;60.00;32.40;;;-2.40;99.90;;;;;;4920318;28;20039;-64
2023/12/03 03:24:24;;;;;;;59.67;31.77;;;-2.10;99.90;;;;;;4935519;28;20057;-65
2023/12/03 03:26:50;;;;;;;67.43;33.25;;;-2.10;99.90;;;;;;4951581;28;20874;-65
2023/12/03 03:29:15;;;;;;;62.10;32.08;;;-2.20;99.90;;;;;;4951119;28;20050;-65
2023/12/03 03:31:41;;;;;;;63.72;33.33;;;-2.80;99.90;;;;;;4950663;28;20046;-64
2023/12/03 03:34:07;;;;;;;65.90;34.72;;;-2.20;99.90;;;;;;4935039;28;20097;-64
2023/12/03 03:36:33;;;;;;;70.68;35.80;;;-2.10;99.90;;;;;;4951281;28;20114;-64
2023/12/03 03:38:59;;;;;;;66.13;35.17;;;-2.60;99.90;;;;;;4934981;28;20050;-65
2023/12/03 03:41:24;;;;;;;68.90;35.63;;;-2.00;99.90;;;;;;4934905;28;20090;-65
2023/12/03 03:43:50;;;;;;;71.00;37.88;;;-2.50;99.90;;;;;;4951474;28;20541;-67
2023/12/03 03:46:16;;;;;;;81.20;36.92;;;-2.20;99.90;;;;;;4948634;28;20787;-65
2023/12/03 03:48:41;;;;;;;94.72;40.92;;;-2.60;99.90;;;;;;4937664;28;20775;-64
2023/12/03 03:51:08;;;;;;;121.00;43.50;;;-2.40;99.90;;;;;;4950658;28;20062;-65
2023/12/03 03:53:34;;;;;;;203.63;54.08;;;-2.50;99.90;;;;;;4935102;28;20121;-64
2023/12/03 03:56:08;;;;;;;227.85;55.40;;;-2.20;99.90;;;;;;4950825;28;20137;-69
2023/12/03 03:58:36;;;;;;;171.25;49.70;;;-1.90;99.90;;;;;;4951684;28;20576;-66
2023/12/03 04:01:07;;;;;;;215.88;57.90;;;-2.20;99.90;;;;;;4950865;28;20038;-66
2023/12/03 04:03:33;;;;;;;176.68;55.00;;;-1.60;99.90;;;;;;4934500;28;20079;-65
2023/12/03 04:06:06;;;;;;;148.07;54.05;;;-1.70;99.90;;;;;;4950310;28;20113;-65
2023/12/03 04:08:33;;;;;;;137.65;50.72;;;-1.60;99.90;;;;;;4950958;28;20109;-65
2023/12/03 04:11:05;;;;;;;123.72;49.30;;;-1.70;99.90;;;;;;4950721;28;20620;-66
2023/12/03 04:13:31;;;;;;;115.80;48.90;;;-1.20;99.90;;;;;;4950602;28;20275;-66
2023/12/03 04:15:57;;;;;;;131.93;52.47;;;-1.10;99.90;;;;;;4950477;28;20683;-66
2023/12/03 04:18:23;;;;;;;155.98;53.03;;;-0.70;99.90;;;;;;4934224;28;20363;-66
2023/12/03 04:20:49;;;;;;;153.68;53.78;;;-0.60;99.90;;;;;;4934367;28;20054;-66
2023/12/03 04:23:15;;;;;;;154.63;54.72;;;-0.90;99.90;;;;;;4951076;28;20051;-66
2023/12/03 04:25:41;;;;;;;159.75;56.60;;;-1.10;99.90;;;;;;4934507;28;20492;-66
2023/12/03 04:28:07;;;;;;;165.20;57.42;;;-0.60;99.90;;;;;;4952645;28;20046;-66
2023/12/03 04:30:33;;;;;;;163.05;54.88;;;-0.60;99.90;;;;;;4934458;28;20410;-66
2023/12/03 04:32:58;;;;;;;177.60;58.45;;;-0.60;99.90;;;;;;4920668;28;20118;-66
2023/12/03 04:35:24;;;;;;;171.30;56.60;;;-1.30;99.90;;;;;;4918117;28;20292;-66
2023/12/03 04:37:50;;;;;;;211.48;59.97;;;-0.80;99.90;;;;;;4950312;28;20046;-66
2023/12/03 04:40:16;;;;;;;250.10;59.28;;;-1.30;99.90;;;;;;4934381;28;20537;-66
2023/12/03 04:42:41;;;;;;;201.10;56.03;;;-0.60;99.90;;;;;;4934230;28;20042;-66
2023/12/03 04:45:08;;;;;;;300.75;67.40;;;-0.50;99.90;;;;;;4950512;28;20471;-66
2023/12/03 04:47:34;;;;;;;344.42;74.30;;;-0.40;99.90;;;;;;4934147;28;20348;-66
2023/12/03 04:49:59;;;;;;;266.73;67.32;;;-0.70;99.90;;;;;;4949156;28;20388;-66
2023/12/03 04:52:25;;;;;;;280.60;70.65;;;-0.70;99.90;;;;;;4950369;28;20518;-66
2023/12/03 04:54:51;;;;;;;184.82;56.72;;;-1.00;99.90;;;;;;4934356;28;20076;-66
2023/12/03 04:57:16;;;;;;;195.98;58.33;;;-0.50;99.90;;;;;;4949975;28;20082;-67
2023/12/03 04:59:42;;;;;;;255.25;63.60;;;-1.00;99.90;;;;;;4936929;28;20192;-67
2023/12/03 05:02:08;;;;;;;212.20;59.40;;;-1.10;99.90;;;;;;4950058;28;20061;-66
2023/12/03 05:04:33;;;;;;;277.05;62.17;;;-0.50;99.90;;;;;;4933971;28;20572;-65
2023/12/03 05:06:59;;;;;;;391.40;66.68;;;-0.40;99.90;;;;;;4950210;28;20078;-66
2023/12/03 05:09:25;;;;;;;359.80;63.20;;;-0.50;99.90;;;;;;4933754;28;20101;-65
2023/12/03 05:11:50;;;;;;;321.73;61.28;;;-0.30;99.90;;;;;;4933439;28;20133;-66
2023/12/03 05:14:16;;;;;;;357.65;66.93;;;-0.40;99.90;;;;;;4948855;28;20058;-65
2023/12/03 05:16:42;;;;;;;293.10;63.63;;;-0.60;99.90;;;;;;4932954;28;20039;-65
2023/12/03 05:19:07;;;;;;;385.50;67.47;;;-0.80;99.90;;;;;;4948653;28;20137;-66
2023/12/03 05:21:33;;;;;;;428.38;77.65;;;-0.90;99.90;;;;;;4949606;28;20054;-65
2023/12/03 05:23:59;;;;;;;304.30;55.50;;;-0.10;99.90;;;;;;4933802;28;20042;-65
2023/12/03 05:26:24;;;;;;;402.17;69.72;;;-0.80;99.90;;;;;;4932939;28;20046;-65
2023/12/03 05:28:50;;;;;;;411.50;65.63;;;0.00;99.90;;;;;;4949369;28;20283;-65
2023/12/03 05:31:16;;;;;;;563.22;78.88;;;0.00;99.90;;;;;;4933267;28;20390;-65
2023/12/03 05:33:42;;;;;;;504.40;73.00;;;-0.10;99.90;;;;;;4917375;28;20043;-65
2023/12/03 05:36:08;;;;;;;464.85;63.63;;;-0.80;99.90;;;;;;4933517;28;20043;-65
2023/12/03 05:38:34;;;;;;;624.63;71.93;;;-0.50;99.90;;;;;;4933534;28;20047;-65
2023/12/03 05:41:00;;;;;;;384.90;59.17;;;-0.90;99.90;;;;;;4949478;28;20050;-65
2023/12/03 05:43:25;;;;;;;416.10;58.08;;;-0.20;99.90;;;;;;4949263;28;20112;-65
2023/12/03 05:45:51;;;;;;;610.60;69.88;;;-1.00;99.90;;;;;;4933389;28;20039;-66
2023/12/03 05:48:17;;;;;;;467.42;68.18;;;-0.60;99.90;;;;;;4933475;28;20321;-65
2023/12/03 05:50:42;;;;;;;523.83;65.55;;;-0.30;99.90;;;;;;4949354;28;20626;-65
2023/12/03 05:53:08;;;;;;;438.17;61.35;;;-0.40;99.90;;;;;;4950211;28;20176;-66
2023/12/03 05:55:34;;;;;;;328.95;51.45;;;-1.10;99.90;;;;;;4933959;28;20498;-65
2023/12/03 05:58:00;;;;;;;445.88;65.18;;;-0.40;99.90;;;;;;4933172;28;20812;-65
2023/12/03 06:00:26;;;;;;;413.13;55.63;;;-0.50;99.90;;;;;;4933110;28;20046;-65
2023/12/03 06:02:52;;;;;;;338.92;50.92;;;-0.80;99.90;;;;;;4933367;28;20045;-68
2023/12/03 06:05:18;;;;;;;379.67;49.85;;;-1.20;99.90;;;;;;4949371;28;20481;-65
2023/12/03 06:07:44;;;;;;;499.83;61.50;;;-0.60;99.90;;;;;;4933358;28;20050;-65
2023/12/03 06:10:10;;;;;;;371.52;52.70;;;-0.60;99.90;;;;;;4932876;28;20319;-65
2023/12/03 06:12:36;;;;;;;334.00;50.17;;;-0.90;99.90;;;;;;4916633;28;20788;-65
2023/12/03 06:15:03;;;;;;;501.17;64.93;;;-0.60;99.90;;;;;;4948948;28;20222;-65
2023/12/03 06:17:29;;;;;;;439.67;59.40;;;-0.60;99.90;;;;;;4933410;28;20046;-65
2023/12/03 06:19:54;;;;;;;476.40;64.60;;;-1.40;99.90;;;;;;4964692;28;20054;-65
2023/12/03 06:22:20;;;;;;;460.05;61.63;;;-0.60;99.90;;;;;;4948621;28;20047;-65
2023/12/03 06:24:46;;;;;;;422.38;61.72;;;-1.00;99.90;;;;;;4950376;28;20350;-65
2023/12/03 06:27:11;;;;;;;382.45;61.30;;;-1.00;99.90;;;;;;4948815;28;20053;-65
2023/12/03 06:29:37;;;;;;;544.90;76.90;;;-1.40;99.90;;;;;;4951872;28;20152;-65
2023/12/03 06:32:03;;;;;;;362.52;60.63;;;-0.70;99.90;;;;;;4951616;28;20445;-65
2023/12/03 06:34:29;;;;;;;617.28;86.70;;;-0.80;99.90;;;;;;4951908;28;20220;-65
2023/12/03 06:36:55;;;;;;;614.42;83.13;;;-1.30;99.90;;;;;;4952678;28;20160;-66
2023/12/03 06:39:20;;;;;;;615.03;85.00;;;-0.80;99.90;;;;;;4920540;28;20039;-65
2023/12/03 06:41:46;;;;;;;639.17;91.65;;;-0.80;99.90;;;;;;4920491;28;20133;-66
2023/12/03 06:44:12;;;;;;;595.15;89.15;;;-1.40;99.90;;;;;;4952381;28;20520;-64
2023/12/03 06:46:41;;;;;;;682.17;91.68;;;-0.60;99.90;;;;;;4940296;28;20035;-64
2023/12/03 06:49:07;;;;;;;676.45;95.35;;;-1.20;99.90;;;;;;4955724;28;20043;-64
2023/12/03 06:51:33;;;;;;;694.75;98.63;;;-1.30;99.90;;;;;;4939334;28;20878;-64
2023/12/03 06:54:00;;;;;;;645.67;88.00;;;-0.70;99.90;;;;;;4956439;28;20043;-66
2023/12/03 06:56:26;;;;;;;786.97;105.80;;;-1.10;99.90;;;;;;4971561;28;20078;-64
2023/12/03 06:58:51;;;;;;;466.98;75.78;;;-0.60;99.90;;;;;;4955935;28;20129;-65
2023/12/03 07:01:17;;;;;;;764.13;102.88;;;-0.40;99.90;;;;;;4939192;28;20047;-64
2023/12/03 07:03:43;;;;;;;683.15;93.10;;;-0.30;99.90;;;;;;4956110;28;20271;-64
2023/12/03 07:06:09;;;;;;;987.60;114.70;;;-0.30;99.90;;;;;;4923586;28;20485;-65
2023/12/03 07:08:34;;;;;;;800.88;99.40;;;-0.70;99.90;;;;;;4956245;28;21238;-63
2023/12/03 07:11:00;;;;;;;713.15;94.93;;;-0.90;99.90;;;;;;4938877;28;20050;-65
2023/12/03 07:13:26;;;;;;;924.42;106.35;;;-0.10;99.90;;;;;;4938392;28;20097;-64
2023/12/03 07:15:52;;;;;;;857.83;113.55;;;0.10;99.90;;;;;;4922468;28;20039;-63
2023/12/03 07:18:17;;;;;;;728.50;101.38;;;-0.80;99.90;;;;;;4938970;28;20039;-63
2023/12/03 07:20:43;;;;;;;1073.38;118.50;;;0.10;99.90;;;;;;4956018;28;20524;-63
2023/12/03 07:23:09;;;;;;;1060.50;119.30;;;-0.40;99.90;;;;;;4938057;28;20051;-63
2023/12/03 07:25:34;;;;;;;896.80;114.35;;;-0.60;99.90;;;;;;4937971;28;20050;-63
2023/12/03 07:28:01;;;;;;;1094.95;122.93;;;0.10;99.90;;;;;;4954601;28;20039;-63
2023/12/03 07:30:27;;;;;;;1163.15;122.15;;;0.10;99.90;;;;;;4954262;28;20069;-63
2023/12/03 07:32:53;;;;;;;925.65;108.05;;;-0.60;99.90;;;;;;4953807;28;20483;-64
2023/12/03 07:35:18;;;;;;;895.80;109.60;;;-0.40;99.90;;;;;;4937488;28;20093;-63
2023/12/03 07:37:44;;;;;;;993.20;115.50;;;-0.50;99.90;;;;;;4938317;28;20166;-64
2023/12/03 07:40:10;;;;;;;900.63;107.30;;;-0.50;99.90;;;;;;4937263;28;20039;-63
2023/12/03 07:42:36;;;;;;;880.40;110.30;;;0.40;99.90;;;;;;4954358;28;20042;-64
2023/12/03 07:45:02;;;;;;;868.63;107.70;;;0.40;99.90;;;;;;4937343;28;20606;-65
2023/12/03 07:47:29;;;;;;;805.38;102.68;;;0.50;99.90;;;;;;4952556;28;20046;-64
2023/12/03 07:49:55;;;;;;;929.47;105.43;;;-0.30;99.90;;;;;;4952685;28;20342;-65
2023/12/03 07:52:21;;;;;;;765.35;93.38;;;-0.20;99.90;;;;;;4905223;28;20267;-64
2023/12/03 07:54:47;;;;;;;732.35;97.68;;;0.50;99.90;;;;;;4937559;28;20038;-65
2023/12/03 07:57:12;;;;;;;827.15;101.97;;;-0.10;99.90;;;;;;4952943;28;20047;-65
2023/12/03 07:59:39;;;;;;;856.95;104.03;;;0.70;99.90;;;;;;4954517;28;20498;-64
2023/12/03 08:02:05;;;;;;;825.47;100.82;;;0.70;99.90;;;;;;4937039;28;20262;-64
2023/12/03 08:04:31;;;;;;;903.30;105.85;;;0.70;99.90;;;;;;4936805;28;20485;-65
2023/12/03 08:06:56;;;;;;;618.40;84.57;;;0.00;99.90;;;;;;4953698;28;20034;-65
2023/12/03 08:09:22;;;;;;;557.13;78.47;;;0.10;99.90;;;;;;4954964;28;20121;-64
2023/12/03 08:11:48;;;;;;;627.78;89.78;;;0.50;99.90;;;;;;4951268;28;20470;-64
2023/12/03 08:14:14;;;;;;;603.85;81.18;;;0.50;99.90;;;;;;4937332;28;20517;-64
2023/12/03 08:16:40;;;;;;;575.45;75.45;;;0.70;99.90;;;;;;4954335;28;20045;-64
2023/12/03 08:19:05;;;;;;;387.38;55.40;;;0.40;99.90;;;;;;4937382;28;20042;-65
2023/12/03 08:21:32;;;;;;;450.15;60.40;;;0.60;99.90;;;;;;4953137;28;20062;-65
2023/12/03 08:23:58;;;;;;;449.40;55.92;;;0.40;99.90;;;;;;4953500;28;20050;-64
2023/12/03 08:26:24;;;;;;;494.40;54.08;;;0.10;99.90;;;;;;4923385;28;20038;-64
2023/12/03 08:28:51;;;;;;;484.45;58.90;;;0.10;99.90;;;;;;4947996;28;20046;-64
2023/12/03 08:31:16;;;;;;;411.17;47.13;;;0.80;99.90;;;;;;4953850;28;20382;-65
2023/12/03 08:33:42;;;;;;;500.45;55.05;;;0.10;99.90;;;;;;4951839;28;20047;-64
2023/12/03 08:36:08;;;;;;;479.27;55.53;;;0.40;99.90;;;;;;4951808;28;20088;-64
2023/12/03 08:38:34;;;;;;;527.20;54.20;;;1.10;99.90;;;;;;4951899;28;20058;-64
2023/12/03 08:41:01;;;;;;;487.55;51.58;;;0.40;99.90;;;;;;4922501;28;20050;-64
2023/12/03 08:43:27;;;;;;;473.90;50.10;;;0.40;99.90;;;;;;4952963;28;20129;-64
2023/12/03 08:45:52;;;;;;;562.88;55.55;;;0.20;99.90;;;;;;4952007;28;20141;-64
2023/12/03 08:48:18;;;;;;;551.65;53.33;;;1.20;99.90;;;;;;4936199;28;20323;-64
2023/12/03 08:50:44;;;;;;;472.42;47.90;;;1.30;99.90;;;;;;4952783;28;20328;-64
2023/12/03 08:53:09;;;;;;;547.90;54.53;;;1.20;99.90;;;;;;4951684;28;20110;-64
2023/12/03 08:55:35;;;;;;;613.10;50.25;;;0.40;99.90;;;;;;4984798;28;20536;-65
2023/12/03 08:58:02;;;;;;;525.17;49.80;;;1.30;99.90;;;;;;4985313;28;20039;-64
2023/12/03 09:00:27;;;;;;;469.88;46.67;;;1.10;99.90;;;;;;4952752;28;20057;-64
2023/12/03 09:02:53;;;;;;;553.63;54.20;;;1.30;99.90;;;;;;4954697;28;20050;-64
2023/12/03 09:05:19;;;;;;;547.13;50.50;;;1.00;99.90;;;;;;4951146;28;20042;-64
2023/12/03 09:07:45;;;;;;;466.95;50.97;;;1.40;99.90;;;;;;4917379;28;20043;-65
2023/12/03 09:10:11;;;;;;;379.45;46.63;;;1.20;99.90;;;;;;4935437;28;20047;-63
2023/12/03 09:12:36;;;;;;;419.05;47.55;;;0.50;99.90;;;;;;4934607;28;20810;-64
2023/12/03 09:15:02;;;;;;;401.33;44.97;;;1.20;99.90;;;;;;4951687;28;20091;-64
2023/12/03 09:17:28;;;;;;;411.55;48.00;;;0.90;99.90;;;;;;4951352;28;20047;-64
2023/12/03 09:19:54;;;;;;;438.92;49.30;;;0.70;99.90;;;;;;4934528;28;20370;-64
2023/12/03 09:22:20;;;;;;;348.33;43.83;;;1.30;99.90;;;;;;4950586;28;20062;-64
2023/12/03 09:24:46;;;;;;;301.25;45.22;;;1.50;99.90;;;;;;4950782;28;20137;-64
2023/12/03 09:27:12;;;;;;;276.67;40.40;;;1.70;99.90;;;;;;4949649;28;20138;-64
2023/12/03 09:29:37;;;;;;;307.67;43.35;;;0.60;99.90;;;;;;4934109;28;20054;-64
2023/12/03 09:32:04;;;;;;;307.83;42.42;;;0.70;99.90;;;;;;4934501;28;20049;-64
2023/12/03 09:34:30;;;;;;;331.42;47.17;;;0.60;99.90;;;;;;4951624;28;20545;-65
2023/12/03 09:36:56;;;;;;;209.43;38.40;;;1.10;99.90;;;;;;4951026;28;20536;-64
2023/12/03 09:39:22;;;;;;;242.85;42.22;;;1.00;99.90;;;;;;4950411;28;20050;-64
2023/12/03 09:41:49;;;;;;;223.85;41.30;;;1.00;99.90;;;;;;4981384;28;20101;-64
2023/12/03 09:44:24;;;;;;;172.50;36.03;;;1.70;99.90;;;;;;4933437;28;20045;-64
2023/12/03 09:46:53;;;;;;;177.73;37.53;;;1.40;99.90;;;;;;4949375;28;20047;-64
2023/12/03 09:49:22;;;;;;;156.60;31.00;;;1.80;99.90;;;;;;4947448;28;20371;-65
2023/12/03 09:51:48;;;;;;;203.30;38.75;;;1.80;99.90;;;;;;4933870;28;20073;-64
2023/12/03 09:54:13;;;;;;;177.55;36.95;;;1.10;99.90;;;;;;4949919;28;20054;-63
2023/12/03 09:56:42;;;;;;;178.23;36.40;;;1.00;99.90;;;;;;4950596;28;20058;-64
2023/12/03 09:59:10;;;;;;;176.13;37.25;;;1.80;99.90;;;;;;4949641;28;20051;-66
2023/12/03 10:01:39;;;;;;;158.63;35.53;;;1.00;99.90;;;;;;4949242;28;20324;-63
2023/12/03 10:04:05;;;;;;;175.60;36.42;;;0.70;99.90;;;;;;4953107;28;20042;-64
2023/12/03 10:06:34;;;;;;;141.43;32.80;;;1.70;99.90;;;;;;4936998;28;20043;-64
2023/12/03 10:09:02;;;;;;;154.50;33.97;;;0.90;99.90;;;;;;4952109;28;20078;-64
2023/12/03 10:11:35;;;;;;;133.43;31.85;;;1.60;99.90;;;;;;4952552;28;20531;-64
2023/12/03 10:14:01;;;;;;;132.77;34.07;;;2.10;99.90;;;;;;4935598;28;20051;-64
2023/12/03 10:16:27;;;;;;;136.35;34.15;;;1.40;99.90;;;;;;4944003;28;20070;-64
2023/12/03 10:18:53;;;;;;;131.52;33.80;;;2.10;99.90;;;;;;4919996;28;20111;-64
2023/12/03 10:21:18;;;;;;;129.65;34.65;;;1.30;99.90;;;;;;4952009;28;20046;-63
2023/12/03 10:24:00;;;;;;;122.80;33.70;;;1.20;99.90;;;;;;4920830;28;20735;-64
2023/12/03 10:26:26;;;;;;;130.38;32.47;;;1.60;99.90;;;;;;4935871;28;20031;-65
2023/12/03 10:28:53;;;;;;;136.75;34.55;;;1.50;99.90;;;;;;4926701;28;20069;-64
2023/12/03 10:31:18;;;;;;;133.70;33.33;;;2.40;99.90;;;;;;4952444;28;20046;-65
2023/12/03 10:33:48;;;;;;;119.05;34.53;;;2.20;99.90;;;;;;4951532;28;20042;-64
2023/12/03 10:36:14;;;;;;;128.95;35.28;;;2.00;99.90;;;;;;4951227;28;20026;-65
2023/12/03 10:38:41;;;;;;;134.50;36.70;;;2.30;99.90;;;;;;4952724;28;20504;-65
2023/12/03 10:41:10;;;;;;;140.38;35.97;;;2.20;99.90;;;;;;4935502;28;20061;-65
2023/12/03 10:43:38;;;;;;;128.30;36.38;;;2.50;99.90;;;;;;4950615;28;20043;-66
2023/12/03 10:46:11;;;;;;;116.15;37.35;;;2.50;99.90;;;;;;4950668;28;20046;-65
2023/12/03 10:48:37;;;;;;;108.80;33.22;;;2.00;99.90;;;;;;4950642;28;20059;-65
2023/12/03 10:51:10;;;;;;;115.55;37.47;;;1.30;99.90;;;;;;4935340;28;20150;-65
2023/12/03 10:53:39;;;;;;;114.95;37.13;;;1.70;99.90;;;;;;4952482;28;20074;-66
2023/12/03 10:56:08;;;;;;;113.25;34.53;;;1.30;99.90;;;;;;4954214;28;20077;-66
2023/12/03 10:58:38;;;;;;;116.53;33.85;;;2.80;99.90;;;;;;4937687;28;20229;-66
2023/12/03 11:01:17;;;;;;;117.85;36.40;;;3.00;99.90;;;;;;4935263;28;20506;-66
2023/12/03 11:03:56;;;;;;;118.20;37.42;;;2.10;99.90;;;;;;4952514;28;20055;-66
2023/12/03 11:06:23;;;;;;;107.85;36.33;;;2.70;99.90;;;;;;4952125;28;20074;-66
2023/12/03 11:08:51;;;;;;;108.88;33.30;;;2.90;99.90;;;;;;4933922;28;20383;-66
2023/12/03 11:11:20;;;;;;;105.63;35.95;;;2.80;99.90;;;;;;4966806;28;20046;-66
2023/12/03 11:13:56;;;;;;;107.88;37.53;;;1.70;99.90;;;;;;4952390;28;20057;-66
2023/12/03 11:16:27;;;;;;;97.63;34.90;;;2.80;99.90;;;;;;4950480;28;20364;-66
2023/12/03 11:19:06;;;;;;;88.88;37.42;;;3.00;99.90;;;;;;4982813;28;20050;-66
2023/12/03 11:22:02;;;;;;;84.43;31.90;;;2.20;99.90;;;;;;4951060;28;20332;-66
2023/12/03 11:24:56;;;;;;;100.95;39.20;;;2.40;99.90;;;;;;4951464;28;20126;-66
2023/12/03 11:27:26;;;;;;;87.53;36.50;;;3.10;99.90;;;;;;4972329;28;20053;-66
2023/12/03 11:29:54;;;;;;;86.50;36.22;;;3.30;99.90;;;;;;4948536;28;20082;-67
2023/12/03 11:32:23;;;;;;;85.78;34.83;;;3.30;99.90;;;;;;4945438;28;20477;-65
2023/12/03 11:34:58;;;;;;;84.93;36.55;;;3.80;99.90;;;;;;4948918;28;20229;-66
2023/12/03 11:37:26;;;;;;;72.95;32.88;;;3.90;99.90;;;;;;4949742;28;20054;-66
2023/12/03 11:39:56;;;;;;;71.57;33.42;;;4.20;99.90;;;;;;4950313;28;20133;-66
2023/12/03 11:42:25;;;;;;;73.63;32.85;;;3.80;99.90;;;;;;4934765;28;20053;-66
2023/12/03 11:45:19;;;;;;;64.75;31.27;;;3.50;99.90;;;;;;4948757;28;20358;-66
2023/12/03 11:48:05;;;;;;;61.33;32.33;;;3.70;99.90;;;;;;4932073;28;20352;-65
2023/12/03 11:50:33;;;;;;;66.35;32.25;;;3.60;99.90;;;;;;4939052;28;20051;-65
2023/12/03 11:52:59;;;;;;;67.65;34.85;;;3.30;99.90;;;;;;4921082;28;20035;-66
2023/12/03 11:55:26;;;;;;;64.75;34.20;;;3.20;99.90;;;;;;4950021;28;20117;-65
2023/12/03 11:57:52;;;;;;;64.82;31.88;;;3.10;99.90;;;;;;4931931;28;20478;-66
2023/12/03 12:00:19;;;;;;;61.45;31.10;;;3.20;99.90;;;;;;4981806;28;20418;-65
2023/12/03 12:02:44;;;;;;;56.60;31.67;;;2.90;99.90;;;;;;4948015;28;20533;-66
2023/12/03 12:05:10;;;;;;;59.20;32.88;;;2.80;99.90;;;;;;4949033;28;20175;-65
2023/12/03 12:07:36;;;;;;;59.67;32.85;;;3.00;99.90;;;;;;4947994;28;20158;-66
2023/12/03 12:10:04;;;;;;;56.60;34.42;;;3.20;99.90;;;;;;4933530;28;20039;-65
2023/12/03 12:12:30;;;;;;;50.33;30.55;;;4.30;99.90;;;;;;4949570;28;20061;-66
2023/12/03 12:14:55;;;;;;;48.85;30.05;;;4.80;99.90;;;;;;4963540;28;20393;-66
2023/12/03 12:17:21;;;;;;;48.10;29.45;;;5.00;99.90;;;;;;4948513;28;20045;-65
2023/12/03 12:19:48;;;;;;;48.25;30.05;;;5.00;99.90;;;;;;4948527;28;20049;-66
2023/12/03 12:22:13;;;;;;;46.55;31.08;;;5.30;99.90;;;;;;4948633;28;20556;-66